Time;durP1;ratioP1;P1;durP2;ratioP2;P2;SDS_P1;SDS_P2;PMS_P1;PMS_P2;Temp;Humidity;BMP_temperature;BMP_pressure;BME280_temperature;BME280_humidity;BME280_pressure;Samples;Min_cycle;Max_cycle;Signal;HPM_P1;HPM_P2
2022/07/22 00:00:27;;;;;;;1.45;1.35;;;16.40;99.90;;;;;;5077245;28;20145;-75
2022/07/22 00:02:53;;;;;;;1.15;1.15;;;16.30;99.90;;;;;;5077330;28;20031;-75
2022/07/22 00:05:18;;;;;;;1.08;1.05;;;16.30;99.90;;;;;;5077330;28;20081;-75
2022/07/22 00:07:44;;;;;;;2.05;1.00;;;16.00;99.90;;;;;;5077077;28;20024;-75
2022/07/22 00:10:13;;;;;;;0.98;0.98;;;16.00;99.90;;;;;;5095176;28;20503;-76
2022/07/22 00:12:39;;;;;;;1.40;1.13;;;15.90;99.90;;;;;;5095246;28;20020;-75
2022/07/22 00:15:08;;;;;;;2.47;1.95;;;15.90;99.90;;;;;;5095218;28;20032;-75
2022/07/22 00:17:36;;;;;;;2.15;1.23;;;15.80;99.90;;;;;;5095299;28;20099;-75
2022/07/22 00:20:06;;;;;;;1.60;1.50;;;15.80;99.90;;;;;;5095321;28;20034;-75
2022/07/22 00:22:31;;;;;;;1.70;1.60;;;15.90;99.90;;;;;;5095253;28;20020;-75
2022/07/22 00:24:58;;;;;;;2.65;1.30;;;15.80;99.90;;;;;;5094857;28;20039;-75
2022/07/22 00:27:23;;;;;;;2.20;1.98;;;15.90;99.90;;;;;;5077084;28;20027;-75
2022/07/22 00:29:49;;;;;;;0.98;0.98;;;15.80;99.90;;;;;;5094682;28;20131;-75
2022/07/22 00:32:15;;;;;;;2.40;1.30;;;15.90;99.90;;;;;;5076679;28;20617;-75
2022/07/22 00:34:40;;;;;;;1.00;1.00;;;15.80;99.90;;;;;;5094847;28;20055;-75
2022/07/22 00:37:06;;;;;;;2.22;1.27;;;15.80;99.90;;;;;;5094948;28;20028;-74
2022/07/22 00:39:32;;;;;;;2.75;1.00;;;15.80;99.90;;;;;;5094315;28;20384;-75
2022/07/22 00:41:59;;;;;;;1.65;1.27;;;15.80;99.90;;;;;;5094905;28;20045;-76
2022/07/22 00:44:26;;;;;;;1.17;1.08;;;15.70;99.90;;;;;;5094828;28;20028;-75
2022/07/22 00:46:51;;;;;;;3.30;1.83;;;15.70;99.90;;;;;;5094909;28;20488;-75
2022/07/22 00:49:17;;;;;;;1.25;1.25;;;;;;;;;;5094475;28;20036;-75
2022/07/22 00:51:43;;;;;;;1.75;1.58;;;15.70;99.90;;;;;;5076436;28;20039;-75
2022/07/22 00:54:09;;;;;;;2.45;1.10;;;15.80;99.90;;;;;;5076158;28;20476;-75
2022/07/22 00:56:36;;;;;;;1.42;0.88;;;;;;;;;;5094531;28;20016;-75
2022/07/22 00:59:06;;;;;;;1.15;1.13;;;15.70;99.90;;;;;;5076453;28;20080;-75
2022/07/22 01:01:32;;;;;;;3.33;1.10;;;15.60;99.90;;;;;;5094480;28;20077;-75
2022/07/22 01:03:58;;;;;;;2.42;1.95;;;15.50;99.90;;;;;;5094370;28;20106;-75
2022/07/22 01:06:23;;;;;;;1.25;1.15;;;15.50;99.90;;;;;;5094239;28;20512;-75
2022/07/22 01:08:49;;;;;;;2.42;1.20;;;15.60;99.90;;;;;;5094298;28;20023;-75
2022/07/22 01:11:17;;;;;;;1.65;1.55;;;15.60;99.90;;;;;;5094665;28;20031;-75
2022/07/22 01:13:44;;;;;;;4.97;1.90;;;15.50;99.90;;;;;;5094147;28;20027;-75
2022/07/22 01:16:12;;;;;;;1.60;1.48;;;15.60;99.90;;;;;;5094404;28;20016;-76
2022/07/22 01:18:38;;;;;;;1.88;1.23;;;15.60;99.90;;;;;;5094449;28;20440;-79
2022/07/22 01:21:05;;;;;;;1.15;1.10;;;15.60;99.90;;;;;;5094238;28;20022;-78
2022/07/22 01:23:31;;;;;;;1.30;1.00;;;15.50;99.90;;;;;;5076020;28;20073;-78
2022/07/22 01:25:57;;;;;;;2.50;2.03;;;15.50;99.90;;;;;;5075710;28;20032;-76
2022/07/22 01:28:23;;;;;;;1.50;0.80;;;15.50;99.90;;;;;;5075784;28;20111;-77
2022/07/22 01:30:49;;;;;;;2.13;1.98;;;15.50;99.90;;;;;;5093855;28;20028;-79
2022/07/22 01:33:16;;;;;;;2.20;1.48;;;15.50;99.90;;;;;;5093888;28;20043;-78
2022/07/22 01:35:42;;;;;;;2.28;2.08;;;;;;;;;;5093995;28;20024;-76
2022/07/22 01:38:08;;;;;;;1.23;1.17;;;15.40;99.90;;;;;;5076191;28;20016;-74
2022/07/22 01:40:34;;;;;;;1.58;1.48;;;;;;;;;;5093769;28;20472;-75
2022/07/22 01:43:00;;;;;;;4.95;2.40;;;15.40;99.90;;;;;;5075582;28;20023;-75
2022/07/22 01:45:25;;;;;;;1.35;1.25;;;15.50;99.90;;;;;;5093528;28;20036;-75
2022/07/22 01:47:51;;;;;;;2.88;1.30;;;;;;;;;;5093577;28;20465;-75
2022/07/22 01:50:17;;;;;;;1.75;1.08;;;15.40;99.90;;;;;;5093230;28;20020;-75
2022/07/22 01:52:43;;;;;;;1.10;1.10;;;;;;;;;;5095205;28;20464;-74
2022/07/22 01:55:10;;;;;;;1.83;1.65;;;15.40;99.90;;;;;;5093471;28;20048;-75
2022/07/22 01:57:36;;;;;;;3.63;1.85;;;15.40;99.90;;;;;;5093624;28;20054;-75
2022/07/22 02:00:05;;;;;;;1.88;1.38;;;15.40;99.90;;;;;;5093799;28;20020;-75
2022/07/22 02:02:30;;;;;;;3.83;2.23;;;15.40;99.90;;;;;;5094690;28;20019;-74
2022/07/22 02:04:56;;;;;;;0.77;0.77;;;15.40;99.90;;;;;;5093659;28;20036;-75
2022/07/22 02:07:24;;;;;;;1.00;1.00;;;15.40;99.90;;;;;;5093255;28;20103;-75
2022/07/22 02:09:50;;;;;;;0.70;0.70;;;;;;;;;;5093212;28;20031;-76
2022/07/22 02:12:16;;;;;;;1.63;1.55;;;;;;;;;;5093297;28;20016;-75
2022/07/22 02:14:42;;;;;;;2.53;2.10;;;;;;;;;;5093368;28;20107;-76
2022/07/22 02:17:11;;;;;;;2.80;1.30;;;15.20;99.90;;;;;;5097139;28;20016;-75
2022/07/22 02:19:36;;;;;;;4.53;1.67;;;15.10;99.90;;;;;;5093555;28;20032;-75
2022/07/22 02:22:02;;;;;;;2.15;2.05;;;15.10;99.90;;;;;;5074977;28;20023;-74
2022/07/22 02:24:31;;;;;;;7.93;1.85;;;15.10;99.90;;;;;;5092936;28;20376;-74
2022/07/22 02:26:57;;;;;;;3.13;1.47;;;15.20;99.90;;;;;;5093056;28;20028;-75
2022/07/22 02:29:22;;;;;;;2.33;1.88;;;15.00;99.90;;;;;;5074855;28;20430;-75
2022/07/22 02:31:48;;;;;;;1.45;1.35;;;15.00;99.90;;;;;;5074995;28;20438;-75
2022/07/22 02:34:14;;;;;;;1.75;1.65;;;15.00;99.90;;;;;;5074873;28;20380;-74
2022/07/22 02:36:40;;;;;;;4.65;2.45;;;;;;;;;;5075387;28;20028;-75
2022/07/22 02:39:06;;;;;;;3.00;1.90;;;;;;;;;;5075073;28;20527;-75
2022/07/22 02:41:32;;;;;;;5.05;1.60;;;;;;;;;;5092982;28;20024;-75
2022/07/22 02:43:59;;;;;;;3.08;2.28;;;14.90;99.90;;;;;;5092940;28;20426;-74
2022/07/22 02:46:28;;;;;;;1.63;1.52;;;14.90;99.90;;;;;;5092919;28;20024;-75
2022/07/22 02:48:54;;;;;;;2.05;0.95;;;14.90;99.90;;;;;;5092917;28;20032;-74
2022/07/22 02:51:23;;;;;;;1.63;1.52;;;14.90;99.90;;;;;;5075154;28;20042;-75
2022/07/22 02:53:49;;;;;;;0.90;0.90;;;14.90;99.90;;;;;;5071971;28;20044;-74
2022/07/22 02:56:15;;;;;;;1.70;1.10;;;14.90;99.90;;;;;;5071331;28;20024;-74
2022/07/22 02:58:41;;;;;;;1.50;1.40;;;14.90;99.90;;;;;;5073170;28;20021;-72
2022/07/22 03:01:08;;;;;;;1.23;1.20;;;14.90;99.90;;;;;;5072912;28;20017;-74
2022/07/22 03:03:34;;;;;;;1.88;1.80;;;14.80;99.90;;;;;;5075433;28;20477;-74
2022/07/22 03:05:59;;;;;;;1.25;1.13;;;14.70;99.90;;;;;;5076241;28;20047;-75
2022/07/22 03:08:29;;;;;;;1.17;1.08;;;14.70;99.90;;;;;;5076440;28;20104;-75
2022/07/22 03:10:54;;;;;;;3.10;1.40;;;14.70;99.90;;;;;;5076280;28;20020;-74
2022/07/22 03:13:20;;;;;;;1.73;1.50;;;14.70;99.90;;;;;;5076375;28;20493;-74
2022/07/22 03:15:46;;;;;;;3.80;2.83;;;14.70;99.90;;;;;;5074678;28;20032;-75
2022/07/22 03:18:12;;;;;;;1.88;1.77;;;14.70;99.90;;;;;;5075725;28;20036;-74
2022/07/22 03:20:38;;;;;;;4.35;2.28;;;;;;;;;;5075766;28;20033;-74
2022/07/22 03:23:03;;;;;;;1.35;1.25;;;14.60;99.90;;;;;;5075450;28;20017;-75
2022/07/22 03:25:30;;;;;;;1.95;1.77;;;14.70;99.90;;;;;;5075436;28;20162;-75
2022/07/22 03:27:57;;;;;;;1.85;1.73;;;;;;;;;;5075613;28;20048;-75
2022/07/22 03:30:23;;;;;;;1.25;1.20;;;;;;;;;;5074202;28;20141;-74
2022/07/22 03:32:49;;;;;;;1.55;1.30;;;14.50;99.90;;;;;;5074279;28;20349;-75
2022/07/22 03:35:15;;;;;;;1.40;1.23;;;14.50;99.90;;;;;;5075487;28;20020;-75
2022/07/22 03:37:41;;;;;;;2.88;1.70;;;14.40;99.90;;;;;;5075398;28;20325;-75
2022/07/22 03:40:08;;;;;;;2.08;1.88;;;14.30;99.90;;;;;;5075425;28;20024;-74
2022/07/22 03:42:33;;;;;;;1.70;1.40;;;14.40;99.90;;;;;;5075150;28;20492;-75
2022/07/22 03:44:59;;;;;;;2.13;1.42;;;;;;;;;;5074285;28;20047;-75
2022/07/22 03:47:25;;;;;;;4.45;2.05;;;14.30;99.90;;;;;;5075784;28;20024;-75
2022/07/22 03:49:51;;;;;;;1.30;1.30;;;14.40;99.90;;;;;;5075717;28;20032;-75
2022/07/22 03:52:17;;;;;;;1.85;1.52;;;;;;;;;;5074617;28;20477;-75
2022/07/22 03:54:43;;;;;;;1.55;1.45;;;14.40;99.90;;;;;;5077932;28;20067;-75
2022/07/22 03:57:09;;;;;;;4.22;2.97;;;14.50;99.90;;;;;;5074197;28;20021;-75
2022/07/22 03:59:35;;;;;;;2.33;1.75;;;14.50;99.90;;;;;;5074202;28;20377;-74
2022/07/22 04:02:01;;;;;;;1.23;1.23;;;14.50;99.90;;;;;;5075429;28;20028;-75
2022/07/22 04:04:27;;;;;;;4.03;2.58;;;14.40;99.90;;;;;;5075489;28;20025;-74
2022/07/22 04:06:53;;;;;;;1.65;1.35;;;14.40;99.90;;;;;;5075321;28;20604;-74
2022/07/22 04:09:19;;;;;;;1.83;1.70;;;14.50;99.90;;;;;;5075423;28;20062;-75
2022/07/22 04:11:45;;;;;;;3.28;1.25;;;14.50;99.90;;;;;;5076728;28;20020;-74
2022/07/22 04:14:11;;;;;;;2.10;1.38;;;14.50;99.90;;;;;;5073341;28;20391;-74
2022/07/22 04:16:36;;;;;;;1.80;1.70;;;14.50;99.90;;;;;;5075317;28;20515;-75
2022/07/22 04:19:06;;;;;;;2.15;2.05;;;14.50;99.90;;;;;;5074908;28;20329;-74
2022/07/22 04:21:32;;;;;;;2.13;1.70;;;14.60;99.90;;;;;;5074834;28;20417;-73
2022/07/22 04:23:57;;;;;;;2.28;2.08;;;14.60;99.90;;;;;;5076425;28;20142;-75
2022/07/22 04:26:23;;;;;;;6.78;2.10;;;14.70;99.90;;;;;;5076116;28;20068;-74
2022/07/22 04:28:49;;;;;;;1.85;1.75;;;14.70;99.90;;;;;;5075596;28;20028;-75
2022/07/22 04:31:14;;;;;;;3.55;2.13;;;14.90;99.90;;;;;;5076136;28;20056;-75
2022/07/22 04:33:40;;;;;;;2.17;1.42;;;14.80;99.90;;;;;;5074884;28;20377;-74
2022/07/22 04:36:06;;;;;;;2.20;1.50;;;14.90;99.90;;;;;;5074761;28;20020;-79
2022/07/22 04:38:35;;;;;;;1.73;1.63;;;15.10;99.90;;;;;;5075488;28;20024;-79
2022/07/22 04:41:01;;;;;;;1.48;1.38;;;;;;;;;;5074542;28;20111;-77
2022/07/22 04:43:26;;;;;;;2.50;1.80;;;15.30;99.90;;;;;;5073436;28;20052;-76
2022/07/22 04:45:52;;;;;;;1.20;1.20;;;15.40;99.90;;;;;;5074552;28;20068;-77
2022/07/22 04:48:18;;;;;;;2.97;1.75;;;15.50;99.90;;;;;;5073514;28;20143;-76
2022/07/22 04:50:44;;;;;;;1.73;1.60;;;15.50;99.90;;;;;;5074762;28;20035;-76
2022/07/22 04:53:10;;;;;;;1.42;1.33;;;15.60;99.90;;;;;;5075786;28;20025;-76
2022/07/22 04:55:35;;;;;;;1.42;1.20;;;15.70;99.90;;;;;;5094613;28;20031;-77
2022/07/22 04:58:01;;;;;;;1.70;1.60;;;15.70;99.90;;;;;;5094502;28;20430;-77
2022/07/22 05:00:27;;;;;;;1.95;1.23;;;15.80;99.90;;;;;;5094484;28;20028;-77
2022/07/22 05:02:53;;;;;;;1.42;1.33;;;15.80;99.90;;;;;;5094509;28;20020;-77
2022/07/22 05:05:19;;;;;;;0.95;0.95;;;;;;;;;;5094406;28;20542;-76
2022/07/22 05:07:44;;;;;;;1.00;1.00;;;15.70;99.90;;;;;;5094511;28;20020;-77
2022/07/22 05:10:10;;;;;;;2.10;1.80;;;15.70;99.90;;;;;;5094361;28;20477;-77
2022/07/22 05:12:36;;;;;;;1.90;1.80;;;15.80;99.90;;;;;;5095758;28;20063;-76
2022/07/22 05:15:02;;;;;;;1.23;1.13;;;15.80;99.90;;;;;;5094182;28;20388;-77
2022/07/22 05:17:28;;;;;;;1.23;1.23;;;;;;;;;;5094207;28;20109;-77
2022/07/22 05:19:54;;;;;;;5.30;1.77;;;16.00;99.90;;;;;;5094237;28;20122;-76
2022/07/22 05:22:19;;;;;;;1.63;1.52;;;16.30;99.90;;;;;;5094241;28;20484;-76
2022/07/22 05:24:45;;;;;;;2.17;1.98;;;16.20;99.90;;;;;;5093870;28;20461;-76
2022/07/22 05:27:11;;;;;;;2.30;1.60;;;16.40;99.90;;;;;;5093979;28;20465;-77
2022/07/22 05:29:37;;;;;;;2.97;2.47;;;16.50;99.90;;;;;;5094010;28;20036;-76
2022/07/22 05:32:03;;;;;;;1.40;1.30;;;16.60;99.90;;;;;;5097553;28;20020;-78
2022/07/22 05:34:28;;;;;;;3.15;2.67;;;16.80;99.90;;;;;;5093840;28;20024;-77
2022/07/22 05:36:54;;;;;;;3.65;2.50;;;16.90;99.90;;;;;;5093719;28;20149;-77
2022/07/22 05:39:20;;;;;;;2.92;1.88;;;;;;;;;;5093857;28;20052;-79
2022/07/22 05:41:46;;;;;;;2.38;2.22;;;17.20;99.90;;;;;;5075587;28;20028;-79
2022/07/22 05:44:12;;;;;;;4.97;2.90;;;;;;;;;;5093765;28;20032;-76
2022/07/22 05:46:37;;;;;;;5.18;3.63;;;17.60;99.90;;;;;;5093947;28;20093;-77
2022/07/22 05:49:03;;;;;;;4.13;2.03;;;17.60;99.90;;;;;;5075438;28;20469;-77
2022/07/22 05:51:29;;;;;;;5.10;2.75;;;17.80;99.90;;;;;;5093368;28;20104;-77
2022/07/22 05:53:54;;;;;;;4.18;1.98;;;17.90;99.90;;;;;;5075177;28;20051;-78
2022/07/22 05:56:20;;;;;;;5.30;3.03;;;18.30;99.90;;;;;;5093842;28;20016;-77
2022/07/22 05:58:46;;;;;;;3.05;2.40;;;18.30;99.90;;;;;;5094226;28;20035;-77
2022/07/22 06:01:12;;;;;;;3.15;2.33;;;;;;;;;;5093480;28;20020;-77
2022/07/22 06:03:38;;;;;;;3.67;3.30;;;18.60;99.90;;;;;;5096382;28;20112;-77
2022/07/22 06:06:08;;;;;;;2.08;1.95;;;18.60;99.90;;;;;;5104327;28;20039;-76
2022/07/22 06:08:34;;;;;;;3.25;2.65;;;18.70;99.90;;;;;;5104079;28;20204;-76
2022/07/22 06:11:00;;;;;;;2.80;2.60;;;18.80;99.90;;;;;;5104877;28;20028;-76
2022/07/22 06:13:27;;;;;;;4.00;3.53;;;18.70;99.90;;;;;;5096476;28;20087;-77
2022/07/22 06:15:52;;;;;;;4.45;2.85;;;18.80;99.90;;;;;;5094603;28;20028;-77
2022/07/22 06:18:18;;;;;;;8.50;3.30;;;19.20;99.90;;;;;;5094434;28;20023;-77
2022/07/22 06:20:44;;;;;;;2.92;2.72;;;19.40;99.90;;;;;;5093305;28;20080;-76
2022/07/22 06:23:09;;;;;;;3.15;2.70;;;19.60;99.90;;;;;;5093253;28;20024;-76
2022/07/22 06:25:35;;;;;;;7.95;3.17;;;19.80;99.90;;;;;;5093236;28;20067;-75
2022/07/22 06:28:01;;;;;;;2.92;2.38;;;19.90;99.90;;;;;;5075619;28;20020;-76
2022/07/22 06:30:27;;;;;;;2.63;2.30;;;19.90;99.90;;;;;;5093098;28;20039;-76
2022/07/22 06:32:53;;;;;;;2.20;1.52;;;19.80;99.90;;;;;;5093511;28;20021;-77
2022/07/22 06:35:19;;;;;;;4.68;2.35;;;19.70;99.90;;;;;;5094681;28;20024;-77
2022/07/22 06:37:45;;;;;;;2.42;2.22;;;19.70;99.90;;;;;;5096566;28;20404;-76
2022/07/22 06:40:11;;;;;;;2.97;2.13;;;19.50;99.90;;;;;;5097366;28;20167;-76
2022/07/22 06:42:37;;;;;;;6.22;3.08;;;19.60;99.90;;;;;;5098461;28;20020;-77
2022/07/22 06:45:04;;;;;;;5.18;3.30;;;19.60;99.90;;;;;;5078781;28;20488;-78
2022/07/22 06:47:30;;;;;;;1.65;1.55;;;19.60;99.90;;;;;;5097011;28;20024;-76
2022/07/22 06:49:56;;;;;;;3.20;2.28;;;19.60;99.90;;;;;;5097032;28;20082;-78
2022/07/22 06:52:22;;;;;;;1.33;1.25;;;;;;;;;;5078845;28;20020;-81
2022/07/22 06:54:47;;;;;;;2.92;2.63;;;20.00;99.90;;;;;;5075395;28;20055;-80
2022/07/22 06:57:13;;;;;;;1.67;1.55;;;20.30;99.90;;;;;;5078560;28;20016;-83
2022/07/22 06:59:39;;;;;;;2.22;1.77;;;20.90;99.90;;;;;;5077056;28;20028;-80
2022/07/22 07:02:05;;;;;;;1.45;1.27;;;23.70;99.90;;;;;;5077087;28;20024;-80
2022/07/22 07:04:30;;;;;;;5.40;1.35;;;24.60;99.90;;;;;;5076443;28;20025;-80
2022/07/22 07:06:56;;;;;;;2.00;1.35;;;25.40;99.90;;;;;;5075271;28;20503;-83
2022/07/22 07:09:22;;;;;;;4.05;1.73;;;;;;;;;;5075426;28;20033;-80
2022/07/22 07:11:48;;;;;;;1.75;1.50;;;26.20;99.90;;;;;;5076539;28;20025;-79
2022/07/22 07:14:13;;;;;;;1.00;1.00;;;26.50;99.90;;;;;;5076611;28;20026;-82
2022/07/22 07:16:39;;;;;;;0.68;0.68;;;27.30;99.90;;;;;;5075480;28;20021;-82
2022/07/22 07:19:05;;;;;;;0.88;0.88;;;28.60;83.00;;;;;;5075514;28;20021;-80
2022/07/22 07:21:30;;;;;;;2.00;1.20;;;29.00;80.00;;;;;;5074857;28;20587;-79
2022/07/22 07:23:56;;;;;;;3.45;1.48;;;29.00;78.60;;;;;;5076396;28;20074;-80
2022/07/22 07:26:22;;;;;;;1.00;1.00;;;29.60;71.80;;;;;;5074707;28;20131;-80
2022/07/22 07:28:48;;;;;;;1.67;1.58;;;30.30;70.00;;;;;;5076055;28;20111;-79
2022/07/22 07:31:13;;;;;;;0.80;0.80;;;29.70;68.30;;;;;;5076119;28;20017;-79
2022/07/22 07:33:39;;;;;;;1.23;1.05;;;29.70;69.10;;;;;;5074733;28;20575;-80
2022/07/22 07:36:05;;;;;;;1.65;1.50;;;29.30;70.10;;;;;;5074482;28;20051;-79
2022/07/22 07:38:31;;;;;;;0.65;0.65;;;;;;;;;;5074431;28;20377;-80
2022/07/22 07:40:57;;;;;;;1.13;0.85;;;27.90;81.20;;;;;;5074487;28;20111;-75
2022/07/22 07:43:23;;;;;;;2.28;0.98;;;27.90;84.10;;;;;;5075946;28;20437;-76
2022/07/22 07:45:49;;;;;;;2.30;1.40;;;28.10;82.70;;;;;;5075740;28;20037;-74
2022/07/22 07:48:14;;;;;;;1.00;0.75;;;28.70;79.80;;;;;;5075757;28;20385;-75
2022/07/22 07:50:40;;;;;;;2.22;1.45;;;28.80;78.70;;;;;;5075933;28;20063;-74
2022/07/22 07:53:06;;;;;;;1.85;0.95;;;28.60;76.40;;;;;;5076539;28;20507;-75
2022/07/22 07:55:35;;;;;;;3.90;1.23;;;28.80;76.00;;;;;;5095838;28;20028;-75
2022/07/22 07:58:01;;;;;;;1.23;1.20;;;28.70;74.60;;;;;;5077438;28;20085;-75
2022/07/22 08:00:30;;;;;;;1.75;0.90;;;28.50;78.10;;;;;;5095933;28;20056;-74
2022/07/22 08:02:55;;;;;;;4.70;1.52;;;28.20;78.20;;;;;;5095646;28;20099;-74
2022/07/22 08:05:21;;;;;;;1.20;0.77;;;28.90;77.70;;;;;;5095655;28;20079;-75
2022/07/22 08:07:48;;;;;;;0.65;0.65;;;28.90;75.70;;;;;;5077447;28;20035;-75
2022/07/22 08:10:14;;;;;;;1.08;1.08;;;28.90;77.50;;;;;;5095626;28;20027;-74
2022/07/22 08:12:39;;;;;;;1.60;0.88;;;28.60;70.80;;;;;;5095521;28;20469;-75
2022/07/22 08:15:06;;;;;;;2.17;2.03;;;28.60;71.70;;;;;;5095460;28;20031;-75
2022/07/22 08:17:33;;;;;;;6.45;1.52;;;29.10;71.70;;;;;;5095319;28;20078;-75
2022/07/22 08:19:59;;;;;;;0.57;0.57;;;28.70;71.70;;;;;;5095237;28;20481;-75
2022/07/22 08:22:25;;;;;;;1.88;1.70;;;28.70;73.00;;;;;;5077290;28;20024;-75
2022/07/22 08:24:50;;;;;;;2.88;1.70;;;28.60;75.40;;;;;;5077031;28;20047;-75
2022/07/22 08:27:16;;;;;;;1.10;1.00;;;28.90;72.00;;;;;;5095358;28;20461;-75
2022/07/22 08:29:42;;;;;;;1.85;1.08;;;29.30;67.70;;;;;;5077036;28;20016;-75
2022/07/22 08:32:08;;;;;;;1.13;0.98;;;29.50;68.30;;;;;;5095055;28;20032;-76
2022/07/22 08:34:35;;;;;;;1.05;0.80;;;29.70;68.30;;;;;;5094949;28;20028;-76
2022/07/22 08:37:00;;;;;;;3.30;1.90;;;29.70;64.60;;;;;;5094936;28;20042;-76
2022/07/22 08:39:27;;;;;;;1.73;1.00;;;;;;;;;;5095044;28;20508;-74
2022/07/22 08:41:53;;;;;;;0.82;0.82;;;29.50;63.50;;;;;;5076803;28;20020;-75
2022/07/22 08:44:19;;;;;;;0.40;0.40;;;29.50;64.10;;;;;;5094790;28;20415;-76
2022/07/22 08:46:45;;;;;;;1.67;0.90;;;30.00;63.50;;;;;;5095226;28;20089;-75
2022/07/22 08:49:17;;;;;;;0.75;0.75;;;30.00;64.20;;;;;;5094728;28;20035;-75
2022/07/22 08:51:43;;;;;;;1.17;0.68;;;30.30;63.60;;;;;;5076862;28;20477;-76
2022/07/22 08:54:09;;;;;;;2.58;1.63;;;30.60;63.60;;;;;;5094464;28;20040;-75
2022/07/22 08:56:34;;;;;;;5.93;1.65;;;30.20;61.10;;;;;;5094454;28;20081;-76
2022/07/22 08:59:01;;;;;;;2.33;1.13;;;;;;;;;;5094551;28;20047;-76
2022/07/22 09:01:28;;;;;;;2.17;1.40;;;;;;;;;;5076033;28;20020;-80
2022/07/22 09:03:56;;;;;;;1.20;0.77;;;29.20;68.50;;;;;;5076576;28;20076;-76
2022/07/22 09:06:24;;;;;;;3.33;1.75;;;30.50;63.80;;;;;;5076225;28;20036;-75
2022/07/22 09:08:54;;;;;;;2.95;0.60;;;30.50;65.20;;;;;;5076236;28;20385;-76
2022/07/22 09:11:23;;;;;;;1.08;0.93;;;30.20;63.10;;;;;;5076367;28;20164;-75
2022/07/22 09:13:49;;;;;;;3.67;0.70;;;29.10;65.40;;;;;;5094331;28;20024;-80
2022/07/22 09:16:15;;;;;;;0.93;0.77;;;29.40;64.20;;;;;;5076169;28;20434;-79
2022/07/22 09:18:59;;;;;;;1.02;1.02;;;29.80;65.70;;;;;;5076114;28;20053;-79
2022/07/22 09:21:29;;;;;;;0.82;0.82;;;29.90;63.70;;;;;;5075635;28;20469;-79
2022/07/22 09:23:55;;;;;;;0.73;0.73;;;30.20;65.40;;;;;;5076010;28;20056;-79
2022/07/22 09:26:35;;;;;;;0.98;0.70;;;30.90;62.40;;;;;;5075802;28;20028;-75
2022/07/22 09:29:02;;;;;;;5.18;1.45;;;30.90;62.80;;;;;;5075725;28;20028;-75
2022/07/22 09:31:33;;;;;;;1.75;1.23;;;30.60;61.70;;;;;;5093902;28;20039;-76
2022/07/22 09:34:00;;;;;;;3.38;1.63;;;30.10;62.70;;;;;;5093574;28;20122;-77
2022/07/22 09:36:26;;;;;;;9.13;1.33;;;30.10;64.30;;;;;;5093590;28;20379;-79
2022/07/22 09:38:52;;;;;;;1.33;1.05;;;;;;;;;;5093393;28;20099;-74
2022/07/22 09:41:18;;;;;;;1.17;1.08;;;30.00;61.40;;;;;;5075240;28;20032;-76
2022/07/22 09:43:44;;;;;;;1.38;1.00;;;29.90;64.00;;;;;;5093549;28;20026;-77
2022/07/22 09:46:10;;;;;;;2.13;2.00;;;29.80;63.80;;;;;;5093289;28;20084;-74
2022/07/22 09:48:37;;;;;;;10.13;2.22;;;30.30;64.10;;;;;;5093107;28;20024;-75
2022/07/22 09:51:04;;;;;;;0.60;0.50;;;30.20;64.20;;;;;;5093120;28;20100;-74
2022/07/22 09:53:31;;;;;;;1.15;1.00;;;30.10;65.60;;;;;;5074770;28;20134;-75
2022/07/22 09:55:58;;;;;;;1.40;1.17;;;30.10;65.00;;;;;;5093270;28;20024;-75
2022/07/22 09:58:25;;;;;;;1.25;1.15;;;29.60;63.40;;;;;;5093240;28;20480;-74
2022/07/22 10:00:52;;;;;;;4.22;0.90;;;30.10;64.40;;;;;;5075171;28;20153;-78
2022/07/22 10:03:29;;;;;;;2.53;1.40;;;31.20;62.70;;;;;;5093356;28;20027;-80
2022/07/22 10:05:56;;;;;;;1.30;1.20;;;31.80;61.60;;;;;;5075031;28;20132;-77
2022/07/22 10:08:24;;;;;;;0.98;0.98;;;31.80;62.20;;;;;;5075261;28;20365;-77
2022/07/22 10:10:51;;;;;;;1.17;0.98;;;31.30;59.80;;;;;;5093318;28;20024;-78
2022/07/22 10:13:18;;;;;;;1.20;0.95;;;31.30;61.50;;;;;;5074451;28;20481;-79
2022/07/22 10:15:45;;;;;;;1.10;1.00;;;31.20;61.70;;;;;;5093460;28;20027;-78
2022/07/22 10:18:18;;;;;;;0.88;0.88;;;31.00;61.30;;;;;;5093335;28;20066;-76
2022/07/22 10:20:45;;;;;;;2.00;0.90;;;;;;;;;;5075114;28;20039;-77
2022/07/22 10:23:12;;;;;;;1.15;1.05;;;30.80;61.80;;;;;;5074907;28;20024;-78
2022/07/22 10:25:56;;;;;;;2.58;1.35;;;30.80;62.50;;;;;;5074775;28;20035;-77
2022/07/22 10:28:25;;;;;;;0.70;0.60;;;31.20;63.70;;;;;;5074965;28;20028;-78
2022/07/22 10:30:51;;;;;;;0.65;0.65;;;31.40;61.40;;;;;;5075044;28;20133;-78
2022/07/22 10:33:19;;;;;;;3.42;1.77;;;31.80;61.50;;;;;;5074962;28;20468;-78
2022/07/22 10:35:58;;;;;;;0.68;0.68;;;32.00;58.20;;;;;;5093141;28;20024;-79
2022/07/22 10:38:26;;;;;;;5.15;1.40;;;32.20;58.50;;;;;;5093131;28;20024;-79
2022/07/22 10:40:54;;;;;;;1.03;0.90;;;32.00;59.20;;;;;;5074526;28;20020;-78
2022/07/22 10:43:27;;;;;;;2.95;1.38;;;31.90;58.20;;;;;;5074705;28;20028;-77
2022/07/22 10:45:58;;;;;;;5.15;1.67;;;31.90;59.60;;;;;;5074713;28;20036;-77
2022/07/22 10:48:36;;;;;;;1.67;1.15;;;31.70;59.40;;;;;;5093210;28;20026;-77
2022/07/22 10:51:05;;;;;;;0.80;0.80;;;31.50;61.70;;;;;;5074801;28;20028;-77
2022/07/22 10:53:56;;;;;;;3.92;1.27;;;31.10;60.40;;;;;;5074642;28;20040;-77
2022/07/22 10:56:35;;;;;;;1.13;0.95;;;28.00;58.00;;;;;;5074703;28;20032;-81
2022/07/22 10:59:27;;;;;;;;;;;31.10;62.50;;;;;;5093232;28;20055;-78
2022/07/22 11:01:58;;;;;;;1.25;0.95;;;31.70;61.50;;;;;;5070841;28;19911;-78
2022/07/22 11:04:26;;;;;;;0.75;0.65;;;31.90;60.60;;;;;;5074881;28;20451;-82
2022/07/22 11:06:54;;;;;;;1.13;1.02;;;32.50;59.30;;;;;;5074802;28;20055;-81
2022/07/22 11:09:22;;;;;;;1.33;1.23;;;32.40;57.60;;;;;;5092933;28;20078;-81
2022/07/22 11:11:52;;;;;;;3.13;1.08;;;32.40;57.70;;;;;;5092900;28;20102;-80
2022/07/22 11:14:21;;;;;;;1.30;1.17;;;32.60;59.30;;;;;;5092687;28;20027;-78
2022/07/22 11:16:49;;;;;;;3.28;1.80;;;32.60;58.10;;;;;;5077174;28;20048;-77
2022/07/22 11:19:26;;;;;;;0.83;0.77;;;32.40;59.00;;;;;;5099025;28;20043;-79
2022/07/22 11:21:54;;;;;;;0.68;0.68;;;32.60;59.20;;;;;;5065332;28;20029;-80
2022/07/22 11:24:21;;;;;;;1.43;1.33;;;32.80;58.00;;;;;;5099388;28;20019;-78
2022/07/22 11:26:52;;;;;;;2.60;0.88;;;33.00;57.00;;;;;;5096606;28;20275;-79
2022/07/22 11:29:28;;;;;;;2.00;1.42;;;33.90;54.90;;;;;;5096216;28;20487;-79
2022/07/22 11:31:56;;;;;;;1.50;1.13;;;34.30;55.50;;;;;;5078906;28;20028;-79
2022/07/22 11:34:23;;;;;;;1.42;1.33;;;34.60;54.30;;;;;;5078076;28;20110;-79
2022/07/22 11:36:49;;;;;;;1.42;1.20;;;34.30;54.40;;;;;;5096438;28;20102;-79
2022/07/22 11:39:20;;;;;;;2.42;0.93;;;34.60;53.60;;;;;;5078219;28;20023;-79
2022/07/22 11:41:46;;;;;;;2.00;0.90;;;34.30;53.60;;;;;;5095795;28;20391;-79
2022/07/22 11:44:12;;;;;;;9.38;1.58;;;;;;;;;;5096085;28;20522;-79
2022/07/22 11:46:40;;;;;;;1.70;1.60;;;34.20;53.30;;;;;;5095975;28;20068;-75
2022/07/22 11:49:07;;;;;;;1.17;1.00;;;34.20;54.00;;;;;;5095981;28;20415;-81
2022/07/22 11:51:35;;;;;;;0.82;0.80;;;35.00;53.00;;;;;;5096320;28;20020;-80
2022/07/22 11:54:01;;;;;;;1.50;0.70;;;;;;;;;;5077775;28;20044;-80
2022/07/22 11:56:28;;;;;;;1.38;0.77;;;36.60;50.40;;;;;;5095835;28;20028;-80
2022/07/22 11:58:55;;;;;;;0.73;0.73;;;36.70;49.20;;;;;;5096669;28;20030;-81
2022/07/22 12:01:26;;;;;;;2.35;0.82;;;36.70;48.90;;;;;;5077713;28;20028;-82
2022/07/22 12:03:54;;;;;;;0.63;0.63;;;36.60;51.00;;;;;;5077764;28;20023;-80
2022/07/22 12:06:22;;;;;;;3.35;1.20;;;36.50;47.90;;;;;;5095780;28;20028;-81
2022/07/22 12:08:54;;;;;;;1.58;1.48;;;36.70;47.00;;;;;;5095671;28;20112;-80
2022/07/22 12:11:22;;;;;;;0.75;0.73;;;36.40;47.20;;;;;;5077470;28;20563;-81
2022/07/22 12:13:50;;;;;;;1.48;1.08;;;36.80;49.30;;;;;;5077588;28;20131;-85
2022/07/22 12:16:20;;;;;;;1.02;1.02;;;36.80;46.80;;;;;;5078111;28;20039;-84
2022/07/22 12:18:52;;;;;;;1.85;0.80;;;37.10;47.60;;;;;;5095809;28;20120;-82
2022/07/22 12:21:18;;;;;;;0.80;0.77;;;36.40;48.70;;;;;;5095496;28;20085;-83
2022/07/22 12:23:51;;;;;;;0.93;0.60;;;36.00;48.40;;;;;;5095359;28;20020;-81
2022/07/22 12:26:16;;;;;;;0.85;0.85;;;35.90;48.80;;;;;;5095306;28;20059;-80
2022/07/22 12:28:42;;;;;;;1.65;1.17;;;;;;;;;;5095325;28;20384;-80
2022/07/22 12:31:08;;;;;;;1.35;1.02;;;36.20;47.60;;;;;;5077053;28;20028;-80
2022/07/22 12:33:34;;;;;;;2.15;0.77;;;36.60;46.80;;;;;;5077036;28;20020;-81
2022/07/22 12:36:06;;;;;;;2.00;1.20;;;37.40;45.20;;;;;;5075879;28;20048;-81
2022/07/22 12:38:32;;;;;;;2.90;1.10;;;;;;;;;;5076765;28;20020;-81
2022/07/22 12:41:25;;;;;;;1.23;1.08;;;36.50;45.20;;;;;;5094953;28;20516;-80
2022/07/22 12:43:51;;;;;;;1.95;0.93;;;;;;;;;;5076715;28;20016;-80
2022/07/22 12:46:17;;;;;;;0.73;0.73;;;36.30;45.30;;;;;;5076733;28;20040;-80
2022/07/22 12:48:54;;;;;;;1.98;0.82;;;36.70;43.90;;;;;;5076667;28;20028;-81
2022/07/22 12:51:20;;;;;;;1.55;1.00;;;;;;;;;;5076565;28;20019;-79
2022/07/22 12:53:46;;;;;;;6.82;0.60;;;37.30;43.20;;;;;;5094466;28;20151;-79
2022/07/22 12:56:12;;;;;;;0.70;0.70;;;36.80;45.50;;;;;;5094501;28;20469;-80